sensor_id;sensor_type;location;lat;lon;timestamp;pressure;altitude;pressure_sealevel;temperature;humidity
35331;BME280;21441;52.190;20.910;2023-09-19T00:00:19;99497.91;;;17.51;100.00
35331;BME280;21441;52.190;20.910;2023-09-19T00:03:07;99508.81;;;17.44;100.00
35331;BME280;21441;52.190;20.910;2023-09-19T00:05:35;99482.94;;;17.43;100.00
35331;BME280;21441;52.190;20.910;2023-09-19T00:08:05;99480.09;;;17.62;100.00
35331;BME280;21441;52.190;20.910;2023-09-19T00:10:33;99494.03;;;17.47;100.00
35331;BME280;21441;52.190;20.910;2023-09-19T00:13:03;99500.97;;;17.43;100.00
35331;BME280;21441;52.190;20.910;2023-09-19T00:15:36;99529.78;;;17.30;100.00
35331;BME280;21441;52.190;20.910;2023-09-19T00:18:03;99521.56;;;17.25;100.00
35331;BME280;21441;52.190;20.910;2023-09-19T00:20:32;99513.75;;;17.24;100.00
35331;BME280;21441;52.190;20.910;2023-09-19T00:23:00;99510.56;;;17.27;100.00
35331;BME280;21441;52.190;20.910;2023-09-19T00:25:34;99532.34;;;17.14;100.00
35331;BME280;21441;52.190;20.910;2023-09-19T00:28:03;99514.44;;;17.19;100.00
35331;BME280;21441;52.190;20.910;2023-09-19T00:30:30;99496.72;;;17.23;100.00
35331;BME280;21441;52.190;20.910;2023-09-19T00:32:57;99460.91;;;17.35;100.00
35331;BME280;21441;52.190;20.910;2023-09-19T00:35:24;99471.31;;;17.31;100.00
35331;BME280;21441;52.190;20.910;2023-09-19T00:37:51;99490.66;;;17.28;100.00
35331;BME280;21441;52.190;20.910;2023-09-19T00:40:19;99509.84;;;17.20;100.00
35331;BME280;21441;52.190;20.910;2023-09-19T00:42:48;99509.28;;;17.18;100.00
35331;BME280;21441;52.190;20.910;2023-09-19T00:45:17;99505.97;;;17.16;100.00
35331;BME280;21441;52.190;20.910;2023-09-19T00:47:48;99505.88;;;17.10;100.00
35331;BME280;21441;52.190;20.910;2023-09-19T00:50:17;99502.31;;;16.98;100.00
35331;BME280;21441;52.190;20.910;2023-09-19T00:52:46;99499.81;;;16.85;100.00
35331;BME280;21441;52.190;20.910;2023-09-19T00:55:16;99485.97;;;16.81;100.00
35331;BME280;21441;52.190;20.910;2023-09-19T00:57:45;99475.69;;;16.90;100.00
35331;BME280;21441;52.190;20.910;2023-09-19T01:00:13;99453.81;;;16.98;100.00
35331;BME280;21441;52.190;20.910;2023-09-19T01:02:43;99457.31;;;16.99;100.00
35331;BME280;21441;52.190;20.910;2023-09-19T01:05:11;99449.94;;;17.06;100.00
35331;BME280;21441;52.190;20.910;2023-09-19T01:07:38;99446.22;;;17.07;100.00
35331;BME280;21441;52.190;20.910;2023-09-19T01:10:08;99446.59;;;17.10;100.00
35331;BME280;21441;52.190;20.910;2023-09-19T01:12:39;99447.03;;;17.07;100.00
35331;BME280;21441;52.190;20.910;2023-09-19T01:15:17;99440.81;;;17.07;100.00
35331;BME280;21441;52.190;20.910;2023-09-19T01:17:54;99448.53;;;17.03;100.00
35331;BME280;21441;52.190;20.910;2023-09-19T01:20:35;99458.84;;;16.95;100.00
35331;BME280;21441;52.190;20.910;2023-09-19T01:23:14;99463.78;;;16.98;100.00
35331;BME280;21441;52.190;20.910;2023-09-19T01:26:05;99462.00;;;16.91;100.00
35331;BME280;21441;52.190;20.910;2023-09-19T01:28:42;99462.22;;;16.90;100.00
35331;BME280;21441;52.190;20.910;2023-09-19T01:31:14;99453.72;;;16.93;100.00
35331;BME280;21441;52.190;20.910;2023-09-19T01:33:59;99434.47;;;17.01;100.00
35331;BME280;21441;52.190;20.910;2023-09-19T01:36:28;99442.22;;;16.98;100.00
35331;BME280;21441;52.190;20.910;2023-09-19T01:38:57;99461.19;;;16.91;100.00
35331;BME280;21441;52.190;20.910;2023-09-19T01:41:54;99447.50;;;17.04;100.00
35331;BME280;21441;52.190;20.910;2023-09-19T01:44:30;99421.28;;;17.00;100.00
35331;BME280;21441;52.190;20.910;2023-09-19T01:47:02;99428.50;;;16.99;100.00
35331;BME280;21441;52.190;20.910;2023-09-19T01:49:36;99448.75;;;16.90;100.00
35331;BME280;21441;52.190;20.910;2023-09-19T01:52:09;99443.75;;;16.94;100.00
35331;BME280;21441;52.190;20.910;2023-09-19T01:54:42;99421.72;;;16.85;100.00
35331;BME280;21441;52.190;20.910;2023-09-19T01:57:17;99417.72;;;16.99;100.00
35331;BME280;21441;52.190;20.910;2023-09-19T01:59:52;99409.66;;;16.99;100.00
35331;BME280;21441;52.190;20.910;2023-09-19T02:02:24;99431.19;;;16.87;100.00
35331;BME280;21441;52.190;20.910;2023-09-19T02:04:51;99446.19;;;16.83;100.00
35331;BME280;21441;52.190;20.910;2023-09-19T02:07:22;99420.78;;;16.91;100.00
35331;BME280;21441;52.190;20.910;2023-09-19T02:09:49;99418.44;;;16.83;100.00
35331;BME280;21441;52.190;20.910;2023-09-19T02:12:15;99410.81;;;16.91;100.00
35331;BME280;21441;52.190;20.910;2023-09-19T02:14:42;99406.94;;;16.87;100.00
35331;BME280;21441;52.190;20.910;2023-09-19T02:17:09;99398.41;;;16.90;100.00
35331;BME280;21441;52.190;20.910;2023-09-19T02:19:38;99426.00;;;16.74;100.00
35331;BME280;21441;52.190;20.910;2023-09-19T02:22:07;99420.13;;;16.77;100.00
35331;BME280;21441;52.190;20.910;2023-09-19T02:24:36;99384.22;;;16.83;100.00
35331;BME280;21441;52.190;20.910;2023-09-19T02:27:04;99390.19;;;16.85;100.00
35331;BME280;21441;52.190;20.910;2023-09-19T02:29:31;99388.56;;;16.84;100.00
35331;BME280;21441;52.190;20.910;2023-09-19T02:31:59;99373.81;;;16.87;100.00
35331;BME280;21441;52.190;20.910;2023-09-19T02:34:27;99388.00;;;16.82;100.00
35331;BME280;21441;52.190;20.910;2023-09-19T02:36:55;99401.84;;;16.67;100.00
35331;BME280;21441;52.190;20.910;2023-09-19T02:39:22;99415.44;;;16.61;100.00
35331;BME280;21441;52.190;20.910;2023-09-19T02:41:50;99408.03;;;16.56;100.00
35331;BME280;21441;52.190;20.910;2023-09-19T02:44:16;99397.97;;;16.63;100.00
35331;BME280;21441;52.190;20.910;2023-09-19T02:46:45;99382.19;;;16.67;100.00
35331;BME280;21441;52.190;20.910;2023-09-19T02:49:12;99383.94;;;16.61;100.00
35331;BME280;21441;52.190;20.910;2023-09-19T02:51:39;99364.97;;;16.68;100.00
35331;BME280;21441;52.190;20.910;2023-09-19T02:54:08;99374.81;;;16.62;100.00
35331;BME280;21441;52.190;20.910;2023-09-19T02:56:35;99359.59;;;16.68;100.00
35331;BME280;21441;52.190;20.910;2023-09-19T02:59:03;99376.56;;;16.57;100.00
35331;BME280;21441;52.190;20.910;2023-09-19T03:01:30;99383.44;;;16.53;100.00
35331;BME280;21441;52.190;20.910;2023-09-19T03:03:57;99381.81;;;16.52;100.00
35331;BME280;21441;52.190;20.910;2023-09-19T03:06:25;99377.63;;;16.56;100.00
35331;BME280;21441;52.190;20.910;2023-09-19T03:08:52;99359.22;;;16.53;100.00
35331;BME280;21441;52.190;20.910;2023-09-19T03:11:20;99362.16;;;16.51;100.00
35331;BME280;21441;52.190;20.910;2023-09-19T03:13:52;99374.91;;;16.56;100.00
35331;BME280;21441;52.190;20.910;2023-09-19T03:16:19;99370.31;;;16.44;100.00
35331;BME280;21441;52.190;20.910;2023-09-19T03:18:47;99386.47;;;16.44;100.00
35331;BME280;21441;52.190;20.910;2023-09-19T03:21:15;99381.53;;;16.41;100.00
35331;BME280;21441;52.190;20.910;2023-09-19T03:23:43;99377.94;;;16.47;100.00
35331;BME280;21441;52.190;20.910;2023-09-19T03:26:11;99370.91;;;16.46;100.00
35331;BME280;21441;52.190;20.910;2023-09-19T03:28:41;99353.50;;;16.49;100.00
35331;BME280;21441;52.190;20.910;2023-09-19T03:31:09;99376.84;;;16.37;100.00
35331;BME280;21441;52.190;20.910;2023-09-19T03:33:36;99377.56;;;16.32;100.00
35331;BME280;21441;52.190;20.910;2023-09-19T03:36:04;99377.22;;;16.40;100.00
35331;BME280;21441;52.190;20.910;2023-09-19T03:38:32;99352.44;;;16.50;100.00
35331;BME280;21441;52.190;20.910;2023-09-19T03:41:00;99326.31;;;16.50;100.00
35331;BME280;21441;52.190;20.910;2023-09-19T03:43:27;99341.88;;;16.48;100.00
35331;BME280;21441;52.190;20.910;2023-09-19T03:45:55;99369.75;;;16.42;100.00
35331;BME280;21441;52.190;20.910;2023-09-19T03:48:22;99372.06;;;16.39;100.00
35331;BME280;21441;52.190;20.910;2023-09-19T03:50:49;99362.81;;;16.35;100.00
35331;BME280;21441;52.190;20.910;2023-09-19T03:53:16;99357.09;;;16.43;100.00
35331;BME280;21441;52.190;20.910;2023-09-19T03:55:44;99344.22;;;16.45;100.00
35331;BME280;21441;52.190;20.910;2023-09-19T03:58:11;99350.66;;;16.44;100.00
35331;BME280;21441;52.190;20.910;2023-09-19T04:00:38;99346.34;;;16.43;100.00
35331;BME280;21441;52.190;20.910;2023-09-19T04:03:07;99339.34;;;16.54;100.00
35331;BME280;21441;52.190;20.910;2023-09-19T04:05:36;99317.78;;;16.54;100.00
35331;BME280;21441;52.190;20.910;2023-09-19T04:08:03;99322.00;;;16.61;100.00
35331;BME280;21441;52.190;20.910;2023-09-19T04:10:30;99320.13;;;16.62;100.00
35331;BME280;21441;52.190;20.910;2023-09-19T04:12:57;99307.72;;;16.61;100.00
35331;BME280;21441;52.190;20.910;2023-09-19T04:15:24;99317.31;;;16.68;100.00
35331;BME280;21441;52.190;20.910;2023-09-19T04:17:51;99310.09;;;16.69;100.00
35331;BME280;21441;52.190;20.910;2023-09-19T04:20:19;99330.88;;;16.50;100.00
35331;BME280;21441;52.190;20.910;2023-09-19T04:22:48;99351.34;;;16.39;100.00
35331;BME280;21441;52.190;20.910;2023-09-19T04:25:15;99340.25;;;16.47;100.00
35331;BME280;21441;52.190;20.910;2023-09-19T04:27:44;99319.41;;;16.43;100.00
35331;BME280;21441;52.190;20.910;2023-09-19T04:30:12;99329.00;;;16.39;100.00
35331;BME280;21441;52.190;20.910;2023-09-19T04:32:40;99338.97;;;16.38;100.00
35331;BME280;21441;52.190;20.910;2023-09-19T04:35:08;99315.06;;;16.42;100.00
35331;BME280;21441;52.190;20.910;2023-09-19T04:37:39;99319.88;;;16.40;100.00
35331;BME280;21441;52.190;20.910;2023-09-19T04:40:08;99326.09;;;16.40;100.00
35331;BME280;21441;52.190;20.910;2023-09-19T04:42:39;99329.69;;;16.34;100.00
35331;BME280;21441;52.190;20.910;2023-09-19T04:45:07;99336.59;;;16.30;100.00
35331;BME280;21441;52.190;20.910;2023-09-19T04:47:36;99323.94;;;16.30;100.00
35331;BME280;21441;52.190;20.910;2023-09-19T04:50:07;99319.63;;;16.41;100.00
35331;BME280;21441;52.190;20.910;2023-09-19T04:52:40;99292.03;;;16.34;100.00
35331;BME280;21441;52.190;20.910;2023-09-19T04:55:10;99329.56;;;16.29;100.00
35331;BME280;21441;52.190;20.910;2023-09-19T04:57:39;99319.88;;;16.40;100.00
35331;BME280;21441;52.190;20.910;2023-09-19T05:00:07;99302.44;;;16.42;100.00
35331;BME280;21441;52.190;20.910;2023-09-19T05:02:38;99317.53;;;16.43;100.00
35331;BME280;21441;52.190;20.910;2023-09-19T05:05:06;99313.22;;;16.42;100.00
35331;BME280;21441;52.190;20.910;2023-09-19T05:07:34;99310.06;;;16.45;100.00
35331;BME280;21441;52.190;20.910;2023-09-19T05:10:02;99292.84;;;16.46;100.00
35331;BME280;21441;52.190;20.910;2023-09-19T05:12:33;99288.19;;;16.54;100.00
35331;BME280;21441;52.190;20.910;2023-09-19T05:15:00;99299.53;;;16.56;100.00
35331;BME280;21441;52.190;20.910;2023-09-19T05:17:29;99299.41;;;16.50;100.00
35331;BME280;21441;52.190;20.910;2023-09-19T05:19:56;99308.66;;;16.55;100.00
35331;BME280;21441;52.190;20.910;2023-09-19T05:22:23;99290.63;;;16.55;100.00
35331;BME280;21441;52.190;20.910;2023-09-19T05:24:53;99276.13;;;16.56;100.00
35331;BME280;21441;52.190;20.910;2023-09-19T05:27:21;99281.63;;;16.61;100.00
35331;BME280;21441;52.190;20.910;2023-09-19T05:29:48;99286.19;;;16.61;100.00
35331;BME280;21441;52.190;20.910;2023-09-19T05:32:16;99282.22;;;16.52;100.00
35331;BME280;21441;52.190;20.910;2023-09-19T05:34:45;99292.16;;;16.63;100.00
35331;BME280;21441;52.190;20.910;2023-09-19T05:37:13;99278.34;;;16.59;100.00
35331;BME280;21441;52.190;20.910;2023-09-19T05:39:41;99288.06;;;16.60;100.00
35331;BME280;21441;52.190;20.910;2023-09-19T05:42:09;99279.41;;;16.70;100.00
35331;BME280;21441;52.190;20.910;2023-09-19T05:44:37;99274.59;;;16.72;100.00
35331;BME280;21441;52.190;20.910;2023-09-19T05:47:04;99268.28;;;16.78;100.00
35331;BME280;21441;52.190;20.910;2023-09-19T05:49:34;99264.41;;;16.86;100.00
35331;BME280;21441;52.190;20.910;2023-09-19T05:52:04;99270.16;;;16.89;100.00
35331;BME280;21441;52.190;20.910;2023-09-19T05:54:30;99261.34;;;17.06;100.00
35331;BME280;21441;52.190;20.910;2023-09-19T05:56:58;99267.66;;;17.11;100.00
35331;BME280;21441;52.190;20.910;2023-09-19T05:59:25;99268.28;;;17.02;100.00
35331;BME280;21441;52.190;20.910;2023-09-19T06:01:54;99276.56;;;17.12;100.00
35331;BME280;21441;52.190;20.910;2023-09-19T06:04:21;99283.56;;;17.25;100.00
35331;BME280;21441;52.190;20.910;2023-09-19T06:06:48;99300.69;;;17.30;100.00
35331;BME280;21441;52.190;20.910;2023-09-19T06:09:15;99295.25;;;17.42;100.00
35331;BME280;21441;52.190;20.910;2023-09-19T06:11:43;99303.41;;;17.59;100.00
35331;BME280;21441;52.190;20.910;2023-09-19T06:14:10;99299.50;;;17.67;100.00
35331;BME280;21441;52.190;20.910;2023-09-19T06:16:37;99307.56;;;17.79;100.00
35331;BME280;21441;52.190;20.910;2023-09-19T06:19:06;99312.59;;;17.87;100.00
35331;BME280;21441;52.190;20.910;2023-09-19T06:21:34;99311.31;;;17.89;100.00
35331;BME280;21441;52.190;20.910;2023-09-19T06:24:02;99303.88;;;17.97;100.00
35331;BME280;21441;52.190;20.910;2023-09-19T06:26:29;99311.31;;;18.06;100.00
35331;BME280;21441;52.190;20.910;2023-09-19T06:28:57;99322.06;;;18.18;100.00
35331;BME280;21441;52.190;20.910;2023-09-19T06:31:25;99308.00;;;18.33;100.00
35331;BME280;21441;52.190;20.910;2023-09-19T06:33:52;99305.38;;;18.55;100.00
35331;BME280;21441;52.190;20.910;2023-09-19T06:36:21;99321.41;;;18.62;100.00
35331;BME280;21441;52.190;20.910;2023-09-19T06:38:47;99323.31;;;18.61;100.00
35331;BME280;21441;52.190;20.910;2023-09-19T06:41:17;99319.97;;;18.54;100.00
35331;BME280;21441;52.190;20.910;2023-09-19T06:43:44;99322.09;;;18.52;100.00
35331;BME280;21441;52.190;20.910;2023-09-19T06:46:11;99322.09;;;18.69;100.00
35331;BME280;21441;52.190;20.910;2023-09-19T06:48:38;99325.44;;;18.76;100.00
35331;BME280;21441;52.190;20.910;2023-09-19T06:51:06;99334.94;;;18.95;100.00
35331;BME280;21441;52.190;20.910;2023-09-19T06:53:35;99336.41;;;19.03;100.00
35331;BME280;21441;52.190;20.910;2023-09-19T06:56:02;99347.56;;;19.29;100.00
35331;BME280;21441;52.190;20.910;2023-09-19T06:58:29;99328.78;;;19.39;100.00
35331;BME280;21441;52.190;20.910;2023-09-19T07:00:57;99331.53;;;19.44;100.00
35331;BME280;21441;52.190;20.910;2023-09-19T07:03:24;99335.97;;;19.50;100.00
35331;BME280;21441;52.190;20.910;2023-09-19T07:05:52;99336.81;;;19.56;100.00
35331;BME280;21441;52.190;20.910;2023-09-19T07:08:21;99335.00;;;19.62;100.00
35331;BME280;21441;52.190;20.910;2023-09-19T07:10:50;99339.41;;;19.90;100.00
35331;BME280;21441;52.190;20.910;2023-09-19T07:13:18;99344.38;;;20.25;100.00
35331;BME280;21441;52.190;20.910;2023-09-19T07:15:45;99345.31;;;20.41;100.00
35331;BME280;21441;52.190;20.910;2023-09-19T07:18:15;99351.47;;;20.58;100.00
35331;BME280;21441;52.190;20.910;2023-09-19T07:20:43;99353.97;;;20.70;100.00
35331;BME280;21441;52.190;20.910;2023-09-19T07:23:14;99360.38;;;20.91;100.00
35331;BME280;21441;52.190;20.910;2023-09-19T07:25:42;99353.38;;;20.95;100.00
35331;BME280;21441;52.190;20.910;2023-09-19T07:28:10;99351.22;;;20.97;100.00
35331;BME280;21441;52.190;20.910;2023-09-19T07:30:37;99369.50;;;21.17;100.00
35331;BME280;21441;52.190;20.910;2023-09-19T07:33:04;99370.13;;;20.92;100.00
35331;BME280;21441;52.190;20.910;2023-09-19T07:35:32;99374.50;;;20.93;100.00
35331;BME280;21441;52.190;20.910;2023-09-19T07:37:59;99379.00;;;20.77;100.00
35331;BME280;21441;52.190;20.910;2023-09-19T07:40:28;99381.97;;;20.49;100.00
35331;BME280;21441;52.190;20.910;2023-09-19T07:42:55;99382.91;;;20.59;100.00
35331;BME280;21441;52.190;20.910;2023-09-19T07:45:23;99375.19;;;20.78;100.00
35331;BME280;21441;52.190;20.910;2023-09-19T07:47:51;99390.97;;;20.81;100.00
35331;BME280;21441;52.190;20.910;2023-09-19T07:50:19;99384.34;;;20.72;100.00
35331;BME280;21441;52.190;20.910;2023-09-19T07:52:46;99388.63;;;20.63;100.00
35331;BME280;21441;52.190;20.910;2023-09-19T07:55:13;99369.66;;;20.63;100.00
35331;BME280;21441;52.190;20.910;2023-09-19T07:57:42;99377.34;;;20.76;100.00
35331;BME280;21441;52.190;20.910;2023-09-19T08:00:10;99381.28;;;20.96;100.00
35331;BME280;21441;52.190;20.910;2023-09-19T08:02:39;99388.31;;;20.92;100.00
35331;BME280;21441;52.190;20.910;2023-09-19T08:05:08;99390.75;;;20.93;100.00
35331;BME280;21441;52.190;20.910;2023-09-19T08:07:37;99400.03;;;21.02;100.00
35331;BME280;21441;52.190;20.910;2023-09-19T08:10:05;99397.44;;;21.18;100.00
35331;BME280;21441;52.190;20.910;2023-09-19T08:12:33;99398.38;;;20.96;100.00
35331;BME280;21441;52.190;20.910;2023-09-19T08:15:01;99407.16;;;21.14;100.00
35331;BME280;21441;52.190;20.910;2023-09-19T08:17:33;99411.06;;;21.28;100.00
35331;BME280;21441;52.190;20.910;2023-09-19T08:20:02;99399.00;;;21.09;100.00
35331;BME280;21441;52.190;20.910;2023-09-19T08:22:30;99408.94;;;20.93;100.00
35331;BME280;21441;52.190;20.910;2023-09-19T08:24:58;99390.91;;;21.14;100.00
35331;BME280;21441;52.190;20.910;2023-09-19T08:27:24;99407.13;;;21.41;100.00
35331;BME280;21441;52.190;20.910;2023-09-19T08:29:53;99413.91;;;21.43;100.00
35331;BME280;21441;52.190;20.910;2023-09-19T08:32:20;99400.22;;;21.28;100.00
35331;BME280;21441;52.190;20.910;2023-09-19T08:34:50;99417.19;;;21.13;100.00
35331;BME280;21441;52.190;20.910;2023-09-19T08:37:18;99405.44;;;20.97;100.00
35331;BME280;21441;52.190;20.910;2023-09-19T08:39:45;99411.66;;;20.66;100.00
35331;BME280;21441;52.190;20.910;2023-09-19T08:42:12;99410.69;;;20.50;100.00
35331;BME280;21441;52.190;20.910;2023-09-19T08:44:39;99402.97;;;20.64;100.00
35331;BME280;21441;52.190;20.910;2023-09-19T08:47:10;99400.63;;;20.72;100.00
35331;BME280;21441;52.190;20.910;2023-09-19T08:49:47;99396.38;;;20.81;100.00
35331;BME280;21441;52.190;20.910;2023-09-19T08:52:24;99405.19;;;20.99;100.00
35331;BME280;21441;52.190;20.910;2023-09-19T08:54:52;99399.13;;;20.87;100.00
35331;BME280;21441;52.190;20.910;2023-09-19T08:57:23;99392.66;;;20.60;100.00
35331;BME280;21441;52.190;20.910;2023-09-19T08:59:52;99392.97;;;20.64;100.00
35331;BME280;21441;52.190;20.910;2023-09-19T09:02:20;99394.06;;;20.68;100.00
35331;BME280;21441;52.190;20.910;2023-09-19T09:04:50;99394.91;;;20.69;100.00
35331;BME280;21441;52.190;20.910;2023-09-19T09:07:18;99400.13;;;20.75;100.00
35331;BME280;21441;52.190;20.910;2023-09-19T09:09:47;99406.78;;;20.63;100.00
35331;BME280;21441;52.190;20.910;2023-09-19T09:12:14;99417.63;;;20.63;100.00
35331;BME280;21441;52.190;20.910;2023-09-19T09:14:44;99429.41;;;20.51;100.00
35331;BME280;21441;52.190;20.910;2023-09-19T09:17:11;99443.13;;;20.17;100.00
35331;BME280;21441;52.190;20.910;2023-09-19T09:19:38;99442.84;;;19.92;100.00
35331;BME280;21441;52.190;20.910;2023-09-19T09:22:08;99433.75;;;19.81;100.00
35331;BME280;21441;52.190;20.910;2023-09-19T09:24:36;99404.44;;;19.73;100.00
35331;BME280;21441;52.190;20.910;2023-09-19T09:27:06;99418.34;;;19.65;100.00
35331;BME280;21441;52.190;20.910;2023-09-19T09:29:43;99424.13;;;19.51;100.00
35331;BME280;21441;52.190;20.910;2023-09-19T09:32:16;99432.47;;;19.28;100.00
35331;BME280;21441;52.190;20.910;2023-09-19T09:34:45;99435.19;;;18.94;100.00
35331;BME280;21441;52.190;20.910;2023-09-19T09:37:13;99456.78;;;18.94;100.00
35331;BME280;21441;52.190;20.910;2023-09-19T09:39:49;99492.94;;;18.76;100.00
35331;BME280;21441;52.190;20.910;2023-09-19T09:42:30;99492.13;;;18.75;100.00
35331;BME280;21441;52.190;20.910;2023-09-19T09:45:15;99486.53;;;18.65;100.00
35331;BME280;21441;52.190;20.910;2023-09-19T09:47:44;99480.75;;;18.73;100.00
35331;BME280;21441;52.190;20.910;2023-09-19T09:50:26;99498.41;;;18.64;100.00
35331;BME280;21441;52.190;20.910;2023-09-19T09:52:55;99496.00;;;18.51;100.00
35331;BME280;21441;52.190;20.910;2023-09-19T09:55:56;99486.34;;;18.55;100.00
35331;BME280;21441;52.190;20.910;2023-09-19T09:58:25;99492.56;;;18.55;100.00
35331;BME280;21441;52.190;20.910;2023-09-19T10:00:55;99484.41;;;18.67;100.00
35331;BME280;21441;52.190;20.910;2023-09-19T10:03:33;99467.78;;;18.59;100.00
35331;BME280;21441;52.190;20.910;2023-09-19T10:06:08;99488.50;;;18.70;100.00
35331;BME280;21441;52.190;20.910;2023-09-19T10:09:01;99476.97;;;18.74;100.00
35331;BME280;21441;52.190;20.910;2023-09-19T10:11:47;99488.41;;;18.65;100.00
35331;BME280;21441;52.190;20.910;2023-09-19T10:14:24;99486.84;;;18.52;100.00
35331;BME280;21441;52.190;20.910;2023-09-19T10:16:58;99504.34;;;18.49;100.00
35331;BME280;21441;52.190;20.910;2023-09-19T10:19:30;99529.09;;;18.46;100.00
35331;BME280;21441;52.190;20.910;2023-09-19T10:22:04;99507.25;;;18.60;100.00
35331;BME280;21441;52.190;20.910;2023-09-19T10:24:35;99493.38;;;18.56;100.00
35331;BME280;21441;52.190;20.910;2023-09-19T10:27:04;99508.00;;;18.72;100.00
35331;BME280;21441;52.190;20.910;2023-09-19T10:29:36;99506.25;;;18.94;100.00
35331;BME280;21441;52.190;20.910;2023-09-19T10:32:06;99490.44;;;19.03;100.00
35331;BME280;21441;52.190;20.910;2023-09-19T10:34:35;99469.00;;;18.96;100.00
35331;BME280;21441;52.190;20.910;2023-09-19T10:37:04;99476.88;;;18.98;100.00
35331;BME280;21441;52.190;20.910;2023-09-19T10:39:35;99468.03;;;19.20;100.00
35331;BME280;21441;52.190;20.910;2023-09-19T10:42:06;99465.88;;;19.38;100.00
35331;BME280;21441;52.190;20.910;2023-09-19T10:44:37;99464.00;;;19.22;100.00
35331;BME280;21441;52.190;20.910;2023-09-19T10:47:06;99492.38;;;19.36;100.00
35331;BME280;21441;52.190;20.910;2023-09-19T10:49:33;99459.28;;;19.51;100.00
35331;BME280;21441;52.190;20.910;2023-09-19T10:52:01;99509.06;;;19.33;100.00
35331;BME280;21441;52.190;20.910;2023-09-19T10:54:31;99514.47;;;19.33;100.00
35331;BME280;21441;52.190;20.910;2023-09-19T10:57:03;99496.41;;;19.56;100.00
35331;BME280;21441;52.190;20.910;2023-09-19T10:59:31;99487.88;;;19.64;100.00
35331;BME280;21441;52.190;20.910;2023-09-19T11:02:16;99478.75;;;19.48;100.00
35331;BME280;21441;52.190;20.910;2023-09-19T11:04:43;99497.84;;;19.42;100.00
35331;BME280;21441;52.190;20.910;2023-09-19T11:07:14;99537.16;;;19.15;100.00
35331;BME280;21441;52.190;20.910;2023-09-19T11:09:46;99503.25;;;19.25;100.00
35331;BME280;21441;52.190;20.910;2023-09-19T11:12:12;99524.47;;;19.16;100.00
35331;BME280;21441;52.190;20.910;2023-09-19T11:14:40;99492.59;;;19.18;100.00
35331;BME280;21441;52.190;20.910;2023-09-19T11:17:32;99515.47;;;19.10;100.00
35331;BME280;21441;52.190;20.910;2023-09-19T11:20:22;99525.13;;;19.06;100.00
35331;BME280;21441;52.190;20.910;2023-09-19T11:23:20;99544.28;;;19.05;100.00
35331;BME280;21441;52.190;20.910;2023-09-19T11:25:51;99517.91;;;18.95;100.00
35331;BME280;21441;52.190;20.910;2023-09-19T11:28:35;99486.72;;;19.04;100.00
35331;BME280;21441;52.190;20.910;2023-09-19T11:34:45;99476.63;;;19.33;100.00
35331;BME280;21441;52.190;20.910;2023-09-19T11:40:32;99494.31;;;19.24;100.00
35331;BME280;21441;52.190;20.910;2023-09-19T11:43:28;99535.28;;;19.16;100.00
35331;BME280;21441;52.190;20.910;2023-09-19T11:46:04;99549.19;;;19.08;100.00
35331;BME280;21441;52.190;20.910;2023-09-19T11:48:31;99548.28;;;19.02;100.00
35331;BME280;21441;52.190;20.910;2023-09-19T11:51:00;99512.91;;;19.21;100.00
35331;BME280;21441;52.190;20.910;2023-09-19T11:53:33;99510.72;;;19.17;100.00
35331;BME280;21441;52.190;20.910;2023-09-19T11:56:04;99555.28;;;19.15;100.00
35331;BME280;21441;52.190;20.910;2023-09-19T11:58:37;99546.91;;;19.00;100.00
35331;BME280;21441;52.190;20.910;2023-09-19T12:01:05;99536.00;;;19.11;100.00
35331;BME280;21441;52.190;20.910;2023-09-19T12:03:42;99562.97;;;19.06;100.00
35331;BME280;21441;52.190;20.910;2023-09-19T12:06:12;99564.81;;;18.89;100.00
35331;BME280;21441;52.190;20.910;2023-09-19T12:08:41;99558.28;;;19.02;100.00
35331;BME280;21441;52.190;20.910;2023-09-19T12:11:13;99514.94;;;18.96;100.00
35331;BME280;21441;52.190;20.910;2023-09-19T12:13:42;99513.88;;;18.98;100.00
35331;BME280;21441;52.190;20.910;2023-09-19T12:16:13;99548.13;;;19.09;100.00
35331;BME280;21441;52.190;20.910;2023-09-19T12:18:41;99549.13;;;19.20;100.00
35331;BME280;21441;52.190;20.910;2023-09-19T12:21:25;99525.28;;;19.16;100.00
35331;BME280;21441;52.190;20.910;2023-09-19T12:23:58;99523.16;;;19.18;100.00
35331;BME280;21441;52.190;20.910;2023-09-19T12:26:26;99514.97;;;19.13;100.00
35331;BME280;21441;52.190;20.910;2023-09-19T12:28:54;99545.09;;;19.05;100.00
35331;BME280;21441;52.190;20.910;2023-09-19T12:31:21;99544.34;;;19.10;100.00
35331;BME280;21441;52.190;20.910;2023-09-19T12:33:53;99542.66;;;19.04;100.00
35331;BME280;21441;52.190;20.910;2023-09-19T12:36:21;99564.69;;;19.12;100.00
35331;BME280;21441;52.190;20.910;2023-09-19T12:38:52;99573.47;;;19.20;100.00
35331;BME280;21441;52.190;20.910;2023-09-19T12:41:21;99592.28;;;19.14;100.00
35331;BME280;21441;52.190;20.910;2023-09-19T12:43:48;99561.41;;;19.10;100.00
35331;BME280;21441;52.190;20.910;2023-09-19T12:46:20;99545.84;;;19.17;100.00
35331;BME280;21441;52.190;20.910;2023-09-19T12:49:15;99565.50;;;19.30;100.00
35331;BME280;21441;52.190;20.910;2023-09-19T12:51:43;99577.88;;;19.09;100.00
35331;BME280;21441;52.190;20.910;2023-09-19T12:54:12;99547.41;;;19.13;100.00
35331;BME280;21441;52.190;20.910;2023-09-19T12:56:41;99531.03;;;19.37;100.00
35331;BME280;21441;52.190;20.910;2023-09-19T12:59:11;99515.38;;;19.39;100.00
35331;BME280;21441;52.190;20.910;2023-09-19T13:01:40;99522.00;;;19.48;100.00